Time;durP1;ratioP1;P1;durP2;ratioP2;P2;SDS_P1;SDS_P2;PMS_P1;PMS_P2;Temp;Humidity;BMP_temperature;BMP_pressure;BME280_temperature;BME280_humidity;BME280_pressure;Samples;Min_cycle;Max_cycle;Signal;HPM_P1;HPM_P2
2024/04/13 00:02:14;;;;;;;6.70;4.57;;;9.30;99.90;;;;;;5492571;26;20672;-67
2024/04/13 00:04:40;;;;;;;5.80;4.40;;;9.20;99.90;;;;;;5493006;26;20545;-68
2024/04/13 00:07:09;;;;;;;6.10;4.47;;;9.20;99.90;;;;;;5492319;26;20253;-67
2024/04/13 00:09:34;;;;;;;5.80;4.80;;;9.20;99.90;;;;;;5491833;26;20748;-67
2024/04/13 00:12:03;;;;;;;6.80;4.60;;;9.20;99.90;;;;;;5492175;26;20235;-68
2024/04/13 00:14:29;;;;;;;10.07;4.70;;;9.10;99.90;;;;;;5491533;26;20262;-68
2024/04/13 00:17:00;;;;;;;8.40;5.07;;;9.10;99.90;;;;;;5491144;26;20220;-68
2024/04/13 00:19:26;;;;;;;7.77;4.87;;;9.00;99.90;;;;;;5491560;26;20266;-68
2024/04/13 00:21:54;;;;;;;8.40;4.73;;;9.00;99.90;;;;;;5491233;26;20231;-67
2024/04/13 00:24:21;;;;;;;4.87;4.27;;;8.90;99.90;;;;;;5491877;26;20219;-67
2024/04/13 00:26:49;;;;;;;6.50;4.93;;;8.90;99.90;;;;;;5491252;26;20224;-67
2024/04/13 00:29:15;;;;;;;6.50;4.93;;;8.80;99.90;;;;;;5491390;26;20580;-67
2024/04/13 00:31:43;;;;;;;5.90;4.20;;;8.80;99.90;;;;;;5492386;26;20709;-67
2024/04/13 00:34:12;;;;;;;6.50;4.70;;;8.80;99.90;;;;;;5491778;26;20258;-67
2024/04/13 00:36:40;;;;;;;5.03;4.57;;;8.80;99.90;;;;;;5490858;26;20257;-67
2024/04/13 00:39:06;;;;;;;4.57;4.17;;;8.80;99.90;;;;;;5490921;26;20258;-67
2024/04/13 00:41:35;;;;;;;5.03;4.60;;;8.80;99.90;;;;;;5489718;26;20583;-67
2024/04/13 00:44:03;;;;;;;5.87;4.53;;;8.90;99.90;;;;;;5490797;26;20315;-67
2024/04/13 00:46:32;;;;;;;5.90;4.30;;;8.90;99.90;;;;;;5491071;26;20254;-67
2024/04/13 00:48:59;;;;;;;6.83;5.07;;;8.90;99.90;;;;;;5491204;26;20258;-67
2024/04/13 00:51:33;;;;;;;5.73;3.97;;;8.90;99.90;;;;;;5493071;26;20307;-68
2024/04/13 00:53:59;;;;;;;5.40;4.50;;;8.90;99.90;;;;;;5491469;26;20211;-68
2024/04/13 00:56:28;;;;;;;5.70;4.33;;;8.80;99.90;;;;;;5490700;26;20616;-68
2024/04/13 00:58:56;;;;;;;8.90;4.63;;;8.70;99.90;;;;;;5490662;26;20215;-68
2024/04/13 01:01:27;;;;;;;5.57;4.37;;;8.70;99.90;;;;;;5491065;26;20231;-68
2024/04/13 01:03:53;;;;;;;4.90;3.93;;;8.60;99.90;;;;;;5491145;26;20219;-68
2024/04/13 01:06:22;;;;;;;4.40;3.83;;;8.60;99.90;;;;;;5491359;26;20376;-68
2024/04/13 01:08:51;;;;;;;4.87;4.23;;;8.50;99.90;;;;;;5490981;26;20270;-68
2024/04/13 01:11:19;;;;;;;6.63;4.53;;;8.70;99.90;;;;;;5491132;26;20223;-68
2024/04/13 01:13:45;;;;;;;4.33;3.70;;;8.70;99.90;;;;;;5491034;26;20223;-68
2024/04/13 01:16:14;;;;;;;5.83;3.87;;;8.60;99.90;;;;;;5491418;26;20261;-68
2024/04/13 01:18:41;;;;;;;4.63;4.17;;;8.50;99.90;;;;;;5491495;26;20226;-67
2024/04/13 01:21:09;;;;;;;4.70;4.27;;;8.40;99.90;;;;;;5490748;26;20235;-66
2024/04/13 01:23:43;;;;;;;5.43;3.67;;;8.40;99.90;;;;;;5490573;26;20258;-66
2024/04/13 01:26:15;;;;;;;6.07;4.40;;;8.30;99.90;;;;;;5490658;26;20223;-66
2024/04/13 01:28:41;;;;;;;5.77;4.37;;;8.40;99.90;;;;;;5491066;26;20246;-68
2024/04/13 01:31:11;;;;;;;5.13;3.90;;;8.30;99.90;;;;;;5490909;26;20243;-68
2024/04/13 01:33:37;;;;;;;4.37;3.90;;;8.30;99.90;;;;;;5490953;26;20223;-68
2024/04/13 01:36:06;;;;;;;5.63;4.10;;;8.20;99.90;;;;;;5490225;26;20358;-68
2024/04/13 01:38:32;;;;;;;4.13;3.73;;;8.20;99.90;;;;;;5489395;26;20227;-68
2024/04/13 01:41:01;;;;;;;8.77;4.83;;;8.10;99.90;;;;;;5490334;26;20258;-66
2024/04/13 01:43:29;;;;;;;6.60;4.60;;;8.10;99.90;;;;;;5488851;26;20568;-67
2024/04/13 01:45:58;;;;;;;4.87;4.23;;;8.00;99.90;;;;;;5488887;26;20333;-67
2024/04/13 01:48:24;;;;;;;4.57;4.17;;;8.00;99.90;;;;;;5487357;26;20218;-67
2024/04/13 01:50:52;;;;;;;6.20;4.70;;;8.00;99.90;;;;;;5489508;26;20266;-68
2024/04/13 01:53:18;;;;;;;5.50;4.67;;;8.00;99.90;;;;;;5489692;26;20219;-68
2024/04/13 01:55:49;;;;;;;7.13;4.50;;;8.00;99.90;;;;;;5490261;26;20258;-68
2024/04/13 01:58:15;;;;;;;5.40;4.80;;;7.90;99.90;;;;;;5489669;26;20231;-68
2024/04/13 02:00:46;;;;;;;6.53;4.70;;;7.90;99.90;;;;;;5489975;26;20334;-68
2024/04/13 02:03:11;;;;;;;7.40;4.63;;;7.90;99.90;;;;;;5490017;26;20755;-68
2024/04/13 02:05:40;;;;;;;9.13;5.03;;;7.80;99.90;;;;;;5490710;26;20231;-67
2024/04/13 02:08:06;;;;;;;6.40;5.27;;;7.80;99.90;;;;;;5491238;26;20219;-67
2024/04/13 02:10:36;;;;;;;7.30;4.70;;;7.80;99.90;;;;;;5489365;26;20275;-67
2024/04/13 02:13:03;;;;;;;7.77;4.93;;;7.80;99.90;;;;;;5489269;26;20270;-67
2024/04/13 02:15:31;;;;;;;6.20;5.00;;;7.80;99.90;;;;;;5491764;26;20239;-69
2024/04/13 02:18:00;;;;;;;7.37;5.50;;;7.80;99.90;;;;;;5491429;26;20246;-68
2024/04/13 02:20:29;;;;;;;6.40;5.43;;;7.80;99.90;;;;;;5489604;26;20292;-67
2024/04/13 02:22:54;;;;;;;5.90;4.60;;;7.80;99.90;;;;;;5490005;26;20223;-67
2024/04/13 02:25:23;;;;;;;6.40;5.40;;;7.80;99.90;;;;;;5489415;26;20292;-67
2024/04/13 02:27:49;;;;;;;6.27;4.90;;;7.80;99.90;;;;;;5490779;26;20216;-67
2024/04/13 02:30:17;;;;;;;5.43;4.60;;;7.80;99.90;;;;;;5490668;26;20223;-67
2024/04/13 02:32:43;;;;;;;5.53;4.93;;;7.80;99.90;;;;;;5494698;26;20219;-69
2024/04/13 02:35:15;;;;;;;6.23;4.40;;;7.80;99.90;;;;;;5490912;26;20669;-68
2024/04/13 02:37:40;;;;;;;5.10;4.47;;;7.80;99.90;;;;;;5491203;26;20211;-68
2024/04/13 02:40:10;;;;;;;4.47;4.00;;;7.80;99.90;;;;;;5489928;26;20257;-68
2024/04/13 02:42:36;;;;;;;7.27;4.43;;;7.80;99.90;;;;;;5488687;26;20621;-67
2024/04/13 02:45:06;;;;;;;5.87;4.33;;;7.70;99.90;;;;;;5488763;26;20768;-67
2024/04/13 02:47:32;;;;;;;4.63;4.23;;;7.70;99.90;;;;;;5489113;26;20215;-67
2024/04/13 02:50:01;;;;;;;4.90;4.07;;;7.60;99.90;;;;;;5488960;26;20223;-67
2024/04/13 02:52:31;;;;;;;4.80;4.40;;;7.50;99.90;;;;;;5489821;26;20595;-67
2024/04/13 02:55:00;;;;;;;5.87;4.20;;;7.50;99.90;;;;;;5491448;26;20275;-67
2024/04/13 02:57:26;;;;;;;5.27;4.13;;;7.50;99.90;;;;;;5490552;26;20644;-68
2024/04/13 02:59:55;;;;;;;5.27;4.13;;;7.50;99.90;;;;;;5490717;26;20320;-68
2024/04/13 03:02:21;;;;;;;5.70;4.50;;;7.50;99.90;;;;;;5490506;26;20822;-67
2024/04/13 03:04:52;;;;;;;6.30;5.70;;;7.50;99.90;;;;;;5490541;26;20223;-68
2024/04/13 03:07:18;;;;;;;7.33;5.57;;;7.40;99.90;;;;;;5493437;26;20744;-68
2024/04/13 03:09:51;;;;;;;6.97;5.63;;;7.30;99.90;;;;;;5492671;26;20236;-68
2024/04/13 03:12:17;;;;;;;5.23;4.73;;;7.30;99.90;;;;;;5492138;26;20573;-68
2024/04/13 03:14:45;;;;;;;6.87;5.80;;;7.30;99.90;;;;;;5492384;26;20223;-67
2024/04/13 03:17:11;;;;;;;6.97;5.27;;;7.30;99.90;;;;;;5493286;26;20254;-67
2024/04/13 03:22:08;;;;;;;9.33;5.50;;;7.30;99.90;;;;;;5315185;27;20351;-68
2024/04/13 03:24:34;;;;;;;5.43;4.60;;;7.30;99.90;;;;;;5317066;27;20283;-67
2024/04/13 03:27:06;;;;;;;5.90;5.30;;;7.40;99.90;;;;;;5315121;27;20569;-67
2024/04/13 03:29:32;;;;;;;7.30;5.40;;;7.40;99.90;;;;;;5317838;27;20213;-68
2024/04/13 03:32:01;;;;;;;6.77;5.27;;;7.40;99.90;;;;;;5314905;26;20279;-67
2024/04/13 03:34:27;;;;;;;7.50;4.90;;;7.40;99.90;;;;;;5317721;27;20228;-68
2024/04/13 03:36:56;;;;;;;7.60;5.23;;;7.40;99.90;;;;;;5317830;27;20289;-67
2024/04/13 03:39:25;;;;;;;7.27;5.27;;;7.40;99.90;;;;;;5315192;27;20260;-67
2024/04/13 03:41:54;;;;;;;6.70;5.47;;;7.30;99.90;;;;;;5314988;26;20241;-67
2024/04/13 03:44:25;;;;;;;6.73;5.40;;;7.30;99.90;;;;;;5315107;27;20247;-67
2024/04/13 03:46:51;;;;;;;7.47;5.43;;;7.30;99.90;;;;;;5314892;27;20225;-67
2024/04/13 03:49:19;;;;;;;7.03;4.90;;;7.20;99.90;;;;;;5316772;27;20716;-68
2024/04/13 03:51:45;;;;;;;6.03;4.63;;;7.20;99.90;;;;;;5315698;26;20236;-68
2024/04/13 03:54:14;;;;;;;7.23;5.20;;;7.20;99.90;;;;;;5314825;27;20316;-68
2024/04/13 03:56:39;;;;;;;6.93;5.40;;;7.10;99.90;;;;;;5317233;27;20233;-68
2024/04/13 03:59:08;;;;;;;5.50;5.00;;;7.10;99.90;;;;;;5317792;27;20267;-68
2024/04/13 04:01:37;;;;;;;9.03;5.90;;;7.10;99.90;;;;;;5315236;26;20248;-68
2024/04/13 04:04:05;;;;;;;6.03;5.00;;;7.00;99.90;;;;;;5317431;27;20221;-68
2024/04/13 04:06:31;;;;;;;6.57;5.63;;;7.20;99.90;;;;;;5317499;27;20220;-68
2024/04/13 04:09:00;;;;;;;5.20;4.70;;;7.10;99.90;;;;;;5315468;27;20815;-67
2024/04/13 04:11:27;;;;;;;6.37;4.47;;;7.20;99.90;;;;;;5314491;26;20606;-67
2024/04/13 04:13:56;;;;;;;5.07;4.33;;;7.10;99.90;;;;;;5314791;27;20224;-68
2024/04/13 04:16:21;;;;;;;7.53;4.53;;;7.20;99.90;;;;;;5314514;27;20236;-68
2024/04/13 04:18:53;;;;;;;4.77;4.37;;;7.20;99.90;;;;;;5315338;27;20260;-69
2024/04/13 04:21:19;;;;;;;5.43;4.90;;;7.10;99.90;;;;;;5318301;26;20252;-68
2024/04/13 04:23:47;;;;;;;5.53;4.10;;;7.00;99.90;;;;;;5318234;27;20229;-69
2024/04/13 04:26:13;;;;;;;5.17;4.50;;;6.90;99.90;;;;;;5315638;27;20276;-68
2024/04/13 04:28:42;;;;;;;7.07;4.37;;;6.90;99.90;;;;;;5314383;27;20686;-67
2024/04/13 04:31:12;;;;;;;5.73;4.43;;;6.90;99.90;;;;;;5314071;26;20248;-68
2024/04/13 04:33:41;;;;;;;6.70;4.50;;;6.80;99.90;;;;;;5314159;27;20271;-68
2024/04/13 04:36:10;;;;;;;4.07;3.77;;;6.80;99.90;;;;;;5314279;27;20258;-68
2024/04/13 04:38:38;;;;;;;5.67;4.70;;;6.80;99.90;;;;;;5314040;27;20221;-68
2024/04/13 04:41:04;;;;;;;5.97;5.37;;;6.80;99.90;;;;;;5314205;26;20785;-71
2024/04/13 04:43:33;;;;;;;6.73;4.90;;;6.80;99.90;;;;;;5315108;27;20304;-68
2024/04/13 04:45:59;;;;;;;6.33;4.77;;;6.70;99.90;;;;;;5314042;27;20225;-68
2024/04/13 04:48:27;;;;;;;7.23;5.00;;;6.70;99.90;;;;;;5314146;27;20263;-69
2024/04/13 04:50:57;;;;;;;6.23;4.80;;;6.70;99.90;;;;;;5313955;26;20764;-69
2024/04/13 04:53:29;;;;;;;6.87;6.00;;;6.80;99.90;;;;;;5314075;27;20288;-69
2024/04/13 04:55:56;;;;;;;5.53;4.97;;;6.90;99.90;;;;;;5313987;27;20331;-69
2024/04/13 04:58:25;;;;;;;8.17;5.53;;;6.90;99.90;;;;;;5313745;27;20225;-68
2024/04/13 05:00:51;;;;;;;7.13;5.57;;;6.90;99.90;;;;;;5313685;26;20701;-68
2024/04/13 05:03:20;;;;;;;7.37;5.93;;;6.90;99.90;;;;;;5313622;27;20228;-68
2024/04/13 05:05:46;;;;;;;6.33;5.73;;;6.90;99.90;;;;;;5314111;27;20326;-68
2024/04/13 05:08:15;;;;;;;6.77;5.77;;;7.00;99.90;;;;;;5313728;26;20241;-68
2024/04/13 05:10:44;;;;;;;6.33;5.77;;;7.00;99.90;;;;;;5313261;26;20229;-68
2024/04/13 05:13:12;;;;;;;6.93;5.77;;;7.00;99.90;;;;;;5313733;27;20483;-68
2024/04/13 05:15:39;;;;;;;6.77;5.70;;;7.00;99.90;;;;;;5314227;27;20721;-68
2024/04/13 05:18:08;;;;;;;8.30;6.50;;;7.10;99.90;;;;;;5315849;27;20335;-69
2024/04/13 05:20:34;;;;;;;6.13;5.53;;;7.10;99.90;;;;;;5314179;26;20326;-68
2024/04/13 05:23:03;;;;;;;7.10;6.40;;;7.10;99.90;;;;;;5313389;27;20420;-67
2024/04/13 05:25:29;;;;;;;5.83;5.33;;;7.10;99.90;;;;;;5317800;27;20258;-67
2024/04/13 05:28:00;;;;;;;8.80;6.60;;;7.10;99.90;;;;;;5319753;26;20622;-68
2024/04/13 05:30:26;;;;;;;8.13;6.90;;;7.10;99.90;;;;;;5315942;26;20236;-67
2024/04/13 05:32:55;;;;;;;10.93;8.73;;;7.10;99.90;;;;;;5317857;27;20229;-67
2024/04/13 05:35:21;;;;;;;14.07;10.20;;;7.20;99.90;;;;;;5315800;27;20233;-68
2024/04/13 05:37:50;;;;;;;13.50;8.87;;;7.20;99.90;;;;;;5316933;27;20284;-68
2024/04/13 05:40:16;;;;;;;11.20;7.60;;;7.30;99.90;;;;;;5318820;26;20284;-68
2024/04/13 05:42:44;;;;;;;7.50;6.80;;;7.30;99.90;;;;;;5313032;26;20225;-68
2024/04/13 05:45:14;;;;;;;6.57;5.90;;;7.40;99.90;;;;;;5312920;27;20233;-67
2024/04/13 05:47:43;;;;;;;6.00;5.40;;;7.50;99.90;;;;;;5312970;27;20225;-67
2024/04/13 05:50:09;;;;;;;5.80;5.20;;;7.50;99.90;;;;;;5312585;26;20240;-67
2024/04/13 05:52:38;;;;;;;6.27;4.53;;;7.70;99.90;;;;;;5313023;26;20259;-65
2024/04/13 05:55:06;;;;;;;6.00;5.00;;;7.80;99.90;;;;;;5312976;27;20228;-65
2024/04/13 05:57:37;;;;;;;6.80;5.20;;;7.90;99.90;;;;;;5312979;27;20240;-67
2024/04/13 06:00:04;;;;;;;6.27;5.10;;;7.90;99.90;;;;;;5312745;26;20232;-68
2024/04/13 06:02:35;;;;;;;5.40;4.90;;;8.00;99.90;;;;;;5312559;26;20280;-68
2024/04/13 06:05:01;;;;;;;6.27;5.33;;;8.20;99.90;;;;;;5313041;27;20714;-67
2024/04/13 06:07:30;;;;;;;8.13;5.43;;;8.30;99.90;;;;;;5312672;27;20228;-67
2024/04/13 06:09:56;;;;;;;5.53;4.70;;;8.40;99.90;;;;;;5312598;26;20255;-68
2024/04/13 06:12:24;;;;;;;5.73;4.63;;;8.50;99.90;;;;;;5312769;27;20221;-67
2024/04/13 06:14:51;;;;;;;7.20;5.13;;;8.70;99.90;;;;;;5313028;27;20263;-68
2024/04/13 06:17:19;;;;;;;7.73;5.53;;;8.80;99.90;;;;;;5312550;26;20259;-68
2024/04/13 06:19:48;;;;;;;6.37;4.80;;;9.00;99.90;;;;;;5312405;26;20275;-68
2024/04/13 06:22:20;;;;;;;5.20;4.70;;;9.20;99.90;;;;;;5312829;26;20216;-68
2024/04/13 06:24:46;;;;;;;4.87;4.47;;;9.30;99.90;;;;;;5312818;27;20213;-68
2024/04/13 06:27:14;;;;;;;7.27;5.10;;;9.60;99.90;;;;;;5312973;26;20220;-68
2024/04/13 06:29:40;;;;;;;5.80;5.20;;;9.70;99.90;;;;;;5312460;26;20280;-68
2024/04/13 06:32:09;;;;;;;5.37;4.80;;;9.90;99.90;;;;;;5312950;26;20272;-68
2024/04/13 06:34:35;;;;;;;5.57;4.80;;;10.10;99.90;;;;;;5312873;27;20259;-68
2024/04/13 06:37:07;;;;;;;5.67;4.60;;;10.20;99.90;;;;;;5312832;27;20284;-68
2024/04/13 06:39:33;;;;;;;5.97;4.57;;;10.30;99.90;;;;;;5312518;27;20220;-67
2024/04/13 06:42:02;;;;;;;5.20;4.70;;;10.50;99.90;;;;;;5315342;26;20240;-67
2024/04/13 06:44:28;;;;;;;7.47;5.10;;;10.60;99.90;;;;;;5315303;27;20284;-68
2024/04/13 06:46:56;;;;;;;7.33;4.60;;;10.80;99.90;;;;;;5315346;27;20330;-68
2024/04/13 06:49:22;;;;;;;6.77;5.53;;;10.90;99.90;;;;;;5315158;27;20225;-68
2024/04/13 06:51:51;;;;;;;6.13;5.33;;;11.10;99.90;;;;;;5315022;26;20288;-68
2024/04/13 06:54:19;;;;;;;6.10;5.47;;;11.20;99.90;;;;;;5315141;27;20588;-68
2024/04/13 06:56:48;;;;;;;5.33;4.80;;;11.30;99.90;;;;;;5315092;27;20662;-68
2024/04/13 06:59:14;;;;;;;8.13;4.43;;;11.50;99.90;;;;;;5315008;27;20343;-68
2024/04/13 07:01:42;;;;;;;5.83;4.33;;;11.70;99.90;;;;;;5314848;26;20713;-68
2024/04/13 07:04:08;;;;;;;9.37;5.07;;;11.90;99.90;;;;;;5315108;26;20259;-68
2024/04/13 07:06:38;;;;;;;6.57;4.80;;;12.00;99.90;;;;;;5315129;27;20228;-68
2024/04/13 07:09:05;;;;;;;7.23;4.57;;;12.10;99.90;;;;;;5315043;27;20765;-67
2024/04/13 07:11:36;;;;;;;5.10;4.27;;;12.30;99.90;;;;;;5314709;26;20259;-67
2024/04/13 07:14:02;;;;;;;4.57;3.93;;;12.40;99.90;;;;;;5315056;27;20213;-67
2024/04/13 07:16:33;;;;;;;5.17;3.77;;;12.50;99.90;;;;;;5314811;27;20296;-67
2024/04/13 07:18:59;;;;;;;5.33;3.93;;;12.70;99.90;;;;;;5315368;26;20228;-68
2024/04/13 07:21:27;;;;;;;4.87;4.30;;;12.80;99.90;;;;;;5314753;26;20255;-69
2024/04/13 07:23:53;;;;;;;4.97;4.27;;;13.00;99.90;;;;;;5314829;27;20259;-69
2024/04/13 07:26:21;;;;;;;5.47;4.37;;;13.20;99.90;;;;;;5314656;27;20236;-67
2024/04/13 07:28:50;;;;;;;7.50;4.87;;;13.40;99.90;;;;;;5314828;27;20233;-68
2024/04/13 07:31:19;;;;;;;4.90;4.40;;;13.70;99.90;;;;;;5314443;26;20326;-68
2024/04/13 07:33:44;;;;;;;5.37;3.93;;;13.80;99.90;;;;;;5314704;27;20259;-68
2024/04/13 07:36:13;;;;;;;5.70;4.33;;;13.90;99.90;;;;;;5314555;27;20229;-68
2024/04/13 07:38:39;;;;;;;6.57;4.10;;;14.10;99.90;;;;;;5314499;27;20228;-70
2024/04/13 07:41:08;;;;;;;5.83;4.23;;;14.30;99.90;;;;;;5314397;26;20326;-70
2024/04/13 07:43:33;;;;;;;5.38;4.85;;;14.40;99.90;;;;;;5314575;27;20275;-70
2024/04/13 07:46:05;;;;;;;4.90;4.38;;;14.60;99.90;;;;;;5314545;27;20232;-69
2024/04/13 07:48:31;;;;;;;4.75;4.28;;;14.80;99.90;;;;;;5314889;27;20193;-69
2024/04/13 07:50:59;;;;;;;5.38;4.65;;;15.00;99.90;;;;;;5314077;26;20270;-68
2024/04/13 07:53:25;;;;;;;9.38;4.45;;;15.10;99.90;;;;;;5314719;27;20229;-68
2024/04/13 07:55:53;;;;;;;8.13;4.70;;;15.10;99.90;;;;;;5314869;27;20267;-66
2024/04/13 07:58:19;;;;;;;10.27;4.72;;;15.20;99.90;;;;;;5314489;27;20232;-66
2024/04/13 08:00:49;;;;;;;7.82;5.15;;;15.20;99.90;;;;;;5314137;26;20271;-68
2024/04/13 08:03:18;;;;;;;10.48;4.88;;;15.20;99.90;;;;;;5314414;27;20224;-69
2024/04/13 08:05:47;;;;;;;4.63;4.18;;;15.50;99.90;;;;;;5314431;26;20562;-70
2024/04/13 08:08:12;;;;;;;7.07;4.90;;;15.80;99.90;;;;;;5314509;26;20224;-70
2024/04/13 08:10:42;;;;;;;8.02;4.93;;;15.90;99.90;;;;;;5314112;26;20268;-69
2024/04/13 08:13:08;;;;;;;5.00;4.60;;;15.90;99.90;;;;;;5314097;27;20233;-69
2024/04/13 08:15:40;;;;;;;6.88;5.30;;;15.90;99.90;;;;;;5314158;27;20267;-69
2024/04/13 08:18:06;;;;;;;5.55;4.80;;;16.20;99.90;;;;;;5314348;27;20225;-69
2024/04/13 08:20:38;;;;;;;5.50;4.85;;;16.40;99.90;;;;;;5313956;26;20284;-69
2024/04/13 08:23:05;;;;;;;8.77;5.22;;;16.60;99.90;;;;;;5314206;27;20225;-70
2024/04/13 08:25:34;;;;;;;5.18;4.45;;;16.80;99.90;;;;;;5313863;27;20255;-69
2024/04/13 08:28:00;;;;;;;5.43;4.93;;;16.80;99.90;;;;;;5313845;27;20232;-66
2024/04/13 08:30:29;;;;;;;6.10;5.47;;;16.80;99.90;;;;;;5313648;26;20334;-67
2024/04/13 08:32:55;;;;;;;5.38;4.57;;;16.80;99.90;;;;;;5313817;27;20228;-66
2024/04/13 08:35:24;;;;;;;5.30;4.80;;;17.10;99.90;;;;;;5313513;27;20229;-66
2024/04/13 08:37:52;;;;;;;5.90;4.97;;;17.40;99.90;;;;;;5314029;27;20225;-66
2024/04/13 08:40:21;;;;;;;5.55;4.78;;;17.40;99.90;;;;;;5313640;26;20749;-66
2024/04/13 08:42:52;;;;;;;6.50;4.47;;;17.50;99.90;;;;;;5313730;27;20263;-66
2024/04/13 08:45:22;;;;;;;5.35;4.90;;;17.40;99.90;;;;;;5313870;27;20221;-68
2024/04/13 08:47:49;;;;;;;7.97;5.18;;;17.50;99.90;;;;;;5313875;26;20317;-68
2024/04/13 08:50:18;;;;;;;8.25;5.35;;;17.50;99.90;;;;;;5313386;26;20756;-68
2024/04/13 08:52:45;;;;;;;6.00;5.00;;;17.70;99.90;;;;;;5313656;26;20311;-66
2024/04/13 08:55:16;;;;;;;10.95;5.65;;;17.50;99.90;;;;;;5313523;27;20277;-66
2024/04/13 08:57:43;;;;;;;7.47;4.18;;;17.60;99.90;;;;;;5313574;27;20216;-66
2024/04/13 09:00:16;;;;;;;7.97;5.13;;;17.90;99.90;;;;;;5313610;26;20240;-66
2024/04/13 09:02:44;;;;;;;6.68;4.60;;;18.20;99.90;;;;;;5312778;27;20221;-67
2024/04/13 09:05:15;;;;;;;7.00;4.47;;;18.40;99.90;;;;;;5313326;27;20573;-67
2024/04/13 09:07:42;;;;;;;5.22;4.82;;;18.40;99.90;;;;;;5313484;27;20683;-67
2024/04/13 09:10:18;;;;;;;6.68;4.85;;;18.60;99.90;;;;;;5313517;26;20274;-68
2024/04/13 09:12:44;;;;;;;6.65;5.25;;;18.70;99.90;;;;;;5313570;27;20696;-67
2024/04/13 09:15:13;;;;;;;5.90;4.70;;;18.90;99.90;;;;;;5313459;27;20232;-70
2024/04/13 09:17:39;;;;;;;7.53;5.45;;;19.10;99.90;;;;;;5313400;27;20777;-70
2024/04/13 09:20:09;;;;;;;5.95;4.45;;;19.20;99.90;;;;;;5313014;26;20320;-70
2024/04/13 09:22:36;;;;;;;7.63;5.43;;;19.30;99.90;;;;;;5389498;21;20266;-68
2024/04/13 09:25:07;;;;;;;8.15;5.10;;;19.30;99.90;;;;;;5384282;26;20253;-69
2024/04/13 09:27:36;;;;;;;7.28;5.15;;;19.30;99.90;;;;;;5385722;26;20253;-68
2024/04/13 09:30:08;;;;;;;5.05;4.40;;;19.70;99.90;;;;;;5383967;26;20258;-68
2024/04/13 09:32:35;;;;;;;5.10;4.50;;;19.90;99.90;;;;;;5387335;26;20586;-69
2024/04/13 09:35:10;;;;;;;5.07;4.55;;;20.10;99.90;;;;;;5383956;26;20282;-69
2024/04/13 09:37:36;;;;;;;7.47;4.90;;;19.90;99.90;;;;;;5383077;26;20190;-69
2024/04/13 09:40:05;;;;;;;5.93;5.35;;;20.00;99.90;;;;;;5382437;26;20276;-69
2024/04/13 09:42:31;;;;;;;6.72;5.43;;;20.10;99.90;;;;;;5382500;26;20269;-69
2024/04/13 09:45:10;;;;;;;4.93;3.70;;;20.40;99.90;;;;;;5382505;26;20222;-69
2024/04/13 09:47:36;;;;;;;6.20;4.45;;;20.60;99.90;;;;;;5382457;26;20284;-69
2024/04/13 09:50:04;;;;;;;4.70;4.30;;;20.60;99.90;;;;;;5382246;26;20220;-68
2024/04/13 09:52:34;;;;;;;4.20;3.90;;;20.80;99.90;;;;;;5382127;26;20254;-69
2024/04/13 09:55:01;;;;;;;4.70;4.28;;;20.90;99.90;;;;;;5382405;26;20249;-68
2024/04/13 09:57:30;;;;;;;6.07;4.35;;;21.20;99.90;;;;;;5381940;26;20265;-65
2024/04/13 09:59:56;;;;;;;5.63;4.45;;;21.30;99.90;;;;;;5382014;26;20218;-65
2024/04/13 10:02:28;;;;;;;5.60;3.72;;;21.80;99.90;;;;;;5381907;26;20239;-65
2024/04/13 10:04:54;;;;;;;3.90;3.30;;;21.70;99.90;;;;;;5381825;26;20214;-65
2024/04/13 10:07:27;;;;;;;8.43;3.17;;;21.60;99.90;;;;;;5381985;26;20273;-65
2024/04/13 10:09:59;;;;;;;5.03;3.90;;;21.80;99.90;;;;;;5381807;26;20252;-66
2024/04/13 10:12:34;;;;;;;5.32;3.40;;;21.80;99.90;;;;;;5381785;26;20242;-67
2024/04/13 10:15:01;;;;;;;3.78;3.15;;;22.30;99.90;;;;;;5384021;26;20583;-66
2024/04/13 10:17:34;;;;;;;5.15;2.97;;;22.60;99.90;;;;;;5385171;26;20222;-67
2024/04/13 10:20:00;;;;;;;4.07;3.40;;;22.80;99.90;;;;;;5385101;26;20584;-67
2024/04/13 10:22:28;;;;;;;3.35;2.25;;;23.40;99.90;;;;;;5385207;26;20234;-67
2024/04/13 10:25:03;;;;;;;2.60;2.40;;;23.30;99.90;;;;;;5385036;26;20269;-67
2024/04/13 10:27:34;;;;;;;2.67;2.40;;;23.40;99.90;;;;;;5385036;26;20655;-66
2024/04/13 10:30:01;;;;;;;3.33;2.08;;;23.90;99.90;;;;;;5384851;26;20222;-67
2024/04/13 10:32:32;;;;;;;3.85;2.30;;;24.10;99.90;;;;;;5384809;26;20730;-67
2024/04/13 10:35:07;;;;;;;3.15;2.08;;;24.30;99.90;;;;;;5385149;26;20210;-67
2024/04/13 10:37:36;;;;;;;4.03;2.55;;;24.40;99.90;;;;;;5384959;26;20290;-67
2024/04/13 10:40:04;;;;;;;5.55;2.40;;;24.70;99.90;;;;;;5384995;26;20598;-67
2024/04/13 10:42:37;;;;;;;2.08;1.85;;;24.40;99.60;;;;;;5384711;26;20246;-66
2024/04/13 10:45:09;;;;;;;3.13;1.85;;;24.40;99.30;;;;;;5384843;26;20766;-66
2024/04/13 10:47:42;;;;;;;2.03;1.92;;;24.50;99.40;;;;;;5384443;26;20226;-66
2024/04/13 10:50:10;;;;;;;2.97;2.03;;;24.20;98.20;;;;;;5384682;26;20215;-66
2024/04/13 10:52:38;;;;;;;3.97;2.10;;;24.10;99.90;;;;;;5384961;26;20347;-66
2024/04/13 10:55:05;;;;;;;4.13;1.80;;;24.70;99.90;;;;;;5384686;26;20218;-66
2024/04/13 10:57:34;;;;;;;2.55;1.60;;;25.30;98.70;;;;;;5384939;26;20274;-66
2024/04/13 11:00:00;;;;;;;2.63;1.60;;;25.90;95.10;;;;;;5384865;26;20269;-66
2024/04/13 11:02:28;;;;;;;6.93;1.92;;;25.90;96.00;;;;;;5384454;26;20238;-66
2024/04/13 11:04:57;;;;;;;2.22;1.52;;;26.00;94.20;;;;;;5384421;26;20218;-66
2024/04/13 11:07:25;;;;;;;2.67;1.67;;;26.10;93.10;;;;;;5384426;26;20282;-66
2024/04/13 11:09:51;;;;;;;2.85;1.58;;;26.40;95.50;;;;;;5384582;26;20253;-67
2024/04/13 11:12:21;;;;;;;5.22;2.20;;;26.90;93.40;;;;;;5384389;26;20246;-66
2024/04/13 11:14:47;;;;;;;1.50;1.40;;;27.30;93.50;;;;;;5384449;26;20222;-66
2024/04/13 11:17:15;;;;;;;1.83;1.50;;;27.60;91.60;;;;;;5384601;26;20323;-66
2024/04/13 11:19:41;;;;;;;1.98;1.75;;;27.60;91.90;;;;;;5384280;26;20893;-66
2024/04/13 11:22:14;;;;;;;4.53;2.42;;;27.70;92.80;;;;;;5384329;26;20268;-66
2024/04/13 11:24:40;;;;;;;3.25;1.98;;;27.70;90.10;;;;;;5384388;26;20253;-66
2024/04/13 11:27:10;;;;;;;2.30;1.70;;;27.80;85.30;;;;;;5383459;26;20277;-66
2024/04/13 11:29:36;;;;;;;2.65;1.83;;;27.90;89.10;;;;;;5384442;26;20222;-66
2024/04/13 11:32:05;;;;;;;3.70;1.95;;;27.80;87.30;;;;;;5383890;26;20242;-66
2024/04/13 11:34:31;;;;;;;3.22;1.80;;;26.90;83.10;;;;;;5384272;26;20326;-67
2024/04/13 11:37:04;;;;;;;3.15;1.92;;;27.20;88.20;;;;;;5384160;26;20242;-66
2024/04/13 11:39:35;;;;;;;2.17;1.92;;;27.60;84.30;;;;;;5382470;26;20499;-66
2024/04/13 11:42:06;;;;;;;1.75;1.60;;;27.70;83.60;;;;;;5382451;26;20290;-66
2024/04/13 11:44:32;;;;;;;2.38;1.65;;;28.40;82.20;;;;;;5382449;26;20597;-66
2024/04/13 11:47:02;;;;;;;2.88;2.10;;;28.80;82.50;;;;;;5381617;26;20223;-66
2024/04/13 11:49:28;;;;;;;3.75;2.05;;;29.10;79.90;;;;;;5381725;26;20214;-66
2024/04/13 11:51:57;;;;;;;2.85;1.88;;;29.30;79.00;;;;;;5382850;26;20242;-66
2024/04/13 11:54:24;;;;;;;3.88;2.00;;;29.00;77.10;;;;;;5384573;26;20260;-66
2024/04/13 11:56:56;;;;;;;2.50;1.55;;;29.20;78.20;;;;;;5383631;26;20590;-66
2024/04/13 11:59:23;;;;;;;3.60;1.48;;;29.20;74.90;;;;;;5383663;26;20218;-66
2024/04/13 12:01:51;;;;;;;5.90;2.00;;;28.80;68.30;;;;;;5383540;26;20253;-66
2024/04/13 12:04:17;;;;;;;1.83;1.50;;;29.30;73.90;;;;;;5383201;26;20260;-66
2024/04/13 12:06:47;;;;;;;3.63;1.63;;;28.60;63.90;;;;;;5383624;26;20761;-66
2024/04/13 12:09:13;;;;;;;2.30;1.48;;;29.00;71.40;;;;;;5384148;26;20222;-66
2024/04/13 12:11:41;;;;;;;1.77;1.30;;;29.50;65.70;;;;;;5383452;26;20270;-66
2024/04/13 12:14:10;;;;;;;1.75;1.50;;;29.00;64.70;;;;;;5383648;26;20230;-66
2024/04/13 12:16:39;;;;;;;3.28;1.55;;;29.50;67.70;;;;;;5383564;26;20218;-66
2024/04/13 12:19:05;;;;;;;4.53;1.60;;;30.10;68.20;;;;;;5383745;26;20257;-66
2024/04/13 12:21:33;;;;;;;3.03;2.05;;;29.90;61.50;;;;;;5383301;26;20241;-66
2024/04/13 12:23:59;;;;;;;2.53;1.35;;;30.60;63.50;;;;;;5383756;26;20272;-66
2024/04/13 12:26:29;;;;;;;3.53;1.60;;;30.80;66.00;;;;;;5383489;26;20218;-66
2024/04/13 12:28:55;;;;;;;2.50;1.77;;;31.00;59.60;;;;;;5383433;26;20265;-66
2024/04/13 12:31:26;;;;;;;2.55;1.48;;;31.10;60.10;;;;;;5383417;26;20296;-66
2024/04/13 12:33:52;;;;;;;2.40;1.50;;;30.70;55.40;;;;;;5383849;26;20209;-66
2024/04/13 12:36:20;;;;;;;1.85;1.63;;;30.40;57.60;;;;;;5383374;26;20230;-66
2024/04/13 12:38:46;;;;;;;2.50;1.60;;;30.40;57.30;;;;;;5381988;26;20273;-66
2024/04/13 12:41:15;;;;;;;3.15;1.48;;;30.00;51.90;;;;;;5383271;26;20242;-66
2024/04/13 12:43:41;;;;;;;2.13;1.40;;;29.90;53.10;;;;;;5383436;26;20218;-66
2024/04/13 12:46:10;;;;;;;3.33;1.80;;;30.70;51.60;;;;;;5383056;26;20748;-66
2024/04/13 12:48:38;;;;;;;1.90;1.50;;;30.70;49.30;;;;;;5383114;26;20272;-66
2024/04/13 12:51:07;;;;;;;1.92;1.20;;;31.20;49.00;;;;;;5382914;26;20261;-65
2024/04/13 12:53:33;;;;;;;2.00;1.40;;;31.80;50.60;;;;;;5382815;26;20221;-65
2024/04/13 12:56:01;;;;;;;2.03;1.60;;;31.30;43.70;;;;;;5383148;26;20718;-65
2024/04/13 12:58:27;;;;;;;3.15;1.60;;;31.80;42.80;;;;;;5382905;26;20252;-66